Time;durP1;ratioP1;P1;durP2;ratioP2;P2;SDS_P1;SDS_P2;PMS_P1;PMS_P2;Temp;Humidity;BMP_temperature;BMP_pressure;BME280_temperature;BME280_humidity;BME280_pressure;Samples;Min_cycle;Max_cycle;Signal;HPM_P1;HPM_P2
2021/11/04 00:00:59;;;;;;;42.37;34.33;;;8.50;99.90;;;;;;5038729;28;20518;-70
2021/11/04 00:03:25;;;;;;;45.23;34.70;;;8.50;99.90;;;;;;5032322;28;20192;-71
2021/11/04 00:05:50;;;;;;;49.03;36.47;;;8.50;99.90;;;;;;5032480;28;20161;-71
2021/11/04 00:08:16;;;;;;;43.67;34.50;;;8.50;99.90;;;;;;5032426;28;20160;-71
2021/11/04 00:10:42;;;;;;;43.73;34.67;;;8.50;99.90;;;;;;5032287;28;20161;-71
2021/11/04 00:13:07;;;;;;;40.90;32.03;;;8.50;99.90;;;;;;5032416;28;20259;-71
2021/11/04 00:15:33;;;;;;;43.40;33.73;;;8.50;99.90;;;;;;5032669;28;20176;-70
2021/11/04 00:17:59;;;;;;;47.13;35.50;;;8.50;99.90;;;;;;5032708;28;20196;-70
2021/11/04 00:20:26;;;;;;;45.03;32.57;;;8.60;99.90;;;;;;5032258;28;20187;-70
2021/11/04 00:22:51;;;;;;;48.10;34.77;;;8.60;99.90;;;;;;5032341;28;20396;-70
2021/11/04 00:25:18;;;;;;;47.23;34.70;;;8.60;99.90;;;;;;5032737;28;20807;-71
2021/11/04 00:27:45;;;;;;;51.40;35.67;;;8.50;99.90;;;;;;5032646;28;20199;-70
2021/11/04 00:30:12;;;;;;;49.20;35.60;;;8.50;99.90;;;;;;5040270;28;20427;-71
2021/11/04 00:32:44;;;;;;;47.57;33.97;;;8.50;99.90;;;;;;5052224;28;20973;-71
2021/11/04 00:35:09;;;;;;;53.30;35.80;;;8.50;99.90;;;;;;5051520;28;20433;-70
2021/11/04 00:37:35;;;;;;;50.77;36.43;;;8.50;99.90;;;;;;5052161;28;20391;-70
2021/11/04 00:40:01;;;;;;;50.90;38.13;;;8.50;99.90;;;;;;5050127;28;20164;-71
2021/11/04 00:42:26;;;;;;;45.17;33.83;;;8.50;99.90;;;;;;5051880;28;20183;-71
2021/11/04 00:44:52;;;;;;;50.47;36.27;;;8.50;99.90;;;;;;5051908;28;20272;-70
2021/11/04 00:47:17;;;;;;;48.47;35.20;;;8.50;99.90;;;;;;5051961;28;20179;-71
2021/11/04 00:49:43;;;;;;;47.43;35.13;;;8.50;99.90;;;;;;5052279;28;20160;-71
2021/11/04 00:52:08;;;;;;;46.70;33.90;;;8.50;99.90;;;;;;5041427;28;20182;-71
2021/11/04 00:54:34;;;;;;;50.27;33.07;;;8.50;99.90;;;;;;5032034;28;20190;-70
2021/11/04 00:56:59;;;;;;;54.80;36.57;;;8.50;99.90;;;;;;5031988;28;20629;-71
2021/11/04 00:59:25;;;;;;;48.90;35.33;;;8.50;99.90;;;;;;5035823;28;20183;-71
2021/11/04 01:01:53;;;;;;;49.03;35.93;;;8.40;99.90;;;;;;5031929;28;20220;-71
2021/11/04 01:04:19;;;;;;;54.17;36.23;;;8.40;99.90;;;;;;5032241;28;20189;-70
2021/11/04 01:06:44;;;;;;;56.37;38.20;;;8.40;99.90;;;;;;5031953;28;20475;-71
2021/11/04 01:09:10;;;;;;;48.20;35.10;;;8.40;99.90;;;;;;5042477;28;20167;-71
2021/11/04 01:11:35;;;;;;;48.60;35.83;;;8.40;99.90;;;;;;5052169;28;20155;-70
2021/11/04 01:14:01;;;;;;;48.50;34.17;;;8.40;99.90;;;;;;5051824;28;20161;-70
2021/11/04 01:16:28;;;;;;;51.60;36.07;;;8.40;99.90;;;;;;5051987;28;20168;-71
2021/11/04 01:18:54;;;;;;;49.87;36.87;;;8.40;99.90;;;;;;5051702;28;20632;-70
2021/11/04 01:21:19;;;;;;;52.40;36.63;;;8.40;99.90;;;;;;5051716;28;20395;-71
2021/11/04 01:23:45;;;;;;;57.90;39.70;;;8.50;99.90;;;;;;5051905;28;20200;-71
2021/11/04 01:26:10;;;;;;;50.53;36.90;;;8.50;99.90;;;;;;5050782;28;20180;-71
2021/11/04 01:28:36;;;;;;;52.73;36.80;;;8.50;99.90;;;;;;5039529;28;20176;-70
2021/11/04 01:31:02;;;;;;;52.00;37.63;;;8.50;99.90;;;;;;5033350;28;20176;-70
2021/11/04 01:33:28;;;;;;;55.10;39.70;;;8.50;99.90;;;;;;5035755;28;20637;-70
2021/11/04 01:35:53;;;;;;;54.67;38.43;;;8.50;99.90;;;;;;5035721;28;20482;-70
2021/11/04 01:38:19;;;;;;;56.80;39.53;;;8.40;99.90;;;;;;5035537;28;20164;-71
2021/11/04 01:40:45;;;;;;;53.93;38.63;;;8.40;99.90;;;;;;5035543;28;20199;-71
2021/11/04 01:43:11;;;;;;;53.00;36.97;;;8.40;99.90;;;;;;5035885;28;20493;-70
2021/11/04 01:45:37;;;;;;;52.80;36.97;;;8.40;99.90;;;;;;5035577;28;20231;-71
2021/11/04 01:48:03;;;;;;;54.90;39.03;;;8.40;99.90;;;;;;5035455;28;20427;-70
2021/11/04 01:50:30;;;;;;;53.53;39.00;;;8.40;99.90;;;;;;5035232;28;20164;-71
2021/11/04 01:52:55;;;;;;;51.73;37.80;;;8.40;99.90;;;;;;5035034;28;20966;-70
2021/11/04 01:55:23;;;;;;;60.87;40.80;;;8.40;99.90;;;;;;5035103;28;20434;-71
2021/11/04 01:57:50;;;;;;;57.83;40.73;;;8.40;99.90;;;;;;5039663;28;20180;-71
2021/11/04 02:00:19;;;;;;;53.40;37.30;;;8.40;99.90;;;;;;5054188;28;20433;-70
2021/11/04 02:02:48;;;;;;;55.43;38.70;;;8.40;99.90;;;;;;5054966;28;20939;-71
2021/11/04 02:05:19;;;;;;;60.07;39.47;;;8.40;99.90;;;;;;5055165;28;20451;-70
2021/11/04 02:10:30;;;;;;;53.40;37.83;;;8.40;99.90;;;;;;5069517;28;20550;-71
2021/11/04 02:13:08;;;;;;;57.70;39.07;;;8.40;99.90;;;;;;5069574;28;20894;-70
2021/11/04 02:15:37;;;;;;;53.63;38.13;;;8.40;99.90;;;;;;5069567;28;20421;-70
2021/11/04 02:18:07;;;;;;;60.90;39.97;;;8.40;99.90;;;;;;5050937;28;20929;-71
2021/11/04 02:21:02;;;;;;;62.00;40.53;;;8.40;99.90;;;;;;5049614;28;20420;-71
2021/11/04 02:26:19;;;;;;;60.37;39.77;;;8.40;99.90;;;;;;5069599;28;20538;-72
2021/11/04 02:28:45;;;;;;;50.70;36.07;;;8.40;99.90;;;;;;5069491;28;20421;-70
2021/11/04 02:31:12;;;;;;;50.70;36.47;;;8.40;99.90;;;;;;5067356;28;20925;-70
2021/11/04 02:33:39;;;;;;;51.43;35.23;;;8.40;99.90;;;;;;5062917;28;20415;-70
2021/11/04 02:36:07;;;;;;;54.13;37.83;;;8.40;99.90;;;;;;5049970;28;20875;-71
2021/11/04 02:38:33;;;;;;;46.13;34.47;;;8.40;99.90;;;;;;5049730;28;20398;-70
2021/11/04 02:41:00;;;;;;;56.47;39.20;;;8.40;99.90;;;;;;5049525;28;20383;-70
2021/11/04 02:43:29;;;;;;;50.63;36.50;;;8.40;99.90;;;;;;5049339;28;20394;-70
2021/11/04 02:45:54;;;;;;;52.73;36.60;;;8.40;99.90;;;;;;5049249;28;20461;-70
2021/11/04 02:48:20;;;;;;;53.37;34.97;;;8.40;99.90;;;;;;5049638;28;20402;-71
2021/11/04 02:50:47;;;;;;;58.10;39.70;;;8.40;99.90;;;;;;5049865;28;20183;-70
2021/11/04 02:53:15;;;;;;;55.57;35.40;;;8.40;99.90;;;;;;5049831;28;20183;-70
2021/11/04 02:55:42;;;;;;;52.70;35.60;;;8.40;99.90;;;;;;5049214;28;20468;-70
2021/11/04 02:58:12;;;;;;;50.97;34.03;;;8.30;99.90;;;;;;5059175;28;20449;-70
2021/11/04 03:00:40;;;;;;;50.73;35.43;;;8.30;99.90;;;;;;5068947;28;20426;-70
2021/11/04 03:03:06;;;;;;;52.20;35.90;;;8.30;99.90;;;;;;5059212;28;20528;-70
2021/11/04 03:05:31;;;;;;;50.60;34.73;;;8.40;99.90;;;;;;5049103;28;21050;-70
2021/11/04 03:07:57;;;;;;;51.80;34.47;;;8.40;99.90;;;;;;5048587;28;20846;-70
2021/11/04 03:10:23;;;;;;;48.47;34.80;;;8.40;99.90;;;;;;5048976;28;20166;-70
2021/11/04 03:12:49;;;;;;;55.63;38.03;;;8.40;99.90;;;;;;5048946;28;20214;-70
2021/11/04 03:15:18;;;;;;;48.27;35.77;;;8.40;99.90;;;;;;5049013;28;20160;-70
2021/11/04 03:17:47;;;;;;;53.00;36.97;;;8.40;99.90;;;;;;5048937;28;20435;-70
2021/11/04 03:20:14;;;;;;;49.90;35.17;;;8.40;99.90;;;;;;5048954;28;20441;-70
2021/11/04 03:22:41;;;;;;;47.03;34.00;;;8.40;99.90;;;;;;5048587;28;20431;-71
2021/11/04 03:25:07;;;;;;;46.77;31.50;;;8.40;99.90;;;;;;5048151;28;20504;-70
2021/11/04 03:27:35;;;;;;;46.23;34.37;;;8.40;99.90;;;;;;5048591;28;20426;-70
2021/11/04 03:30:03;;;;;;;44.77;31.67;;;8.40;99.90;;;;;;5048587;28;20472;-71
2021/11/04 03:32:29;;;;;;;41.17;30.37;;;8.40;99.90;;;;;;5048855;28;20426;-70
2021/11/04 03:34:56;;;;;;;40.67;30.57;;;8.40;99.90;;;;;;5048482;28;20765;-70
2021/11/04 03:37:23;;;;;;;45.43;31.77;;;8.40;99.90;;;;;;5036395;28;20429;-71
2021/11/04 03:39:50;;;;;;;48.57;32.67;;;8.40;99.90;;;;;;5034788;28;20399;-69
2021/11/04 03:42:16;;;;;;;48.47;32.30;;;8.40;99.90;;;;;;5034913;28;20427;-70
2021/11/04 03:44:43;;;;;;;43.87;31.50;;;8.50;99.90;;;;;;5034944;28;20450;-70
2021/11/04 03:47:10;;;;;;;48.10;33.70;;;8.50;99.90;;;;;;5035022;28;20395;-70
2021/11/04 03:49:36;;;;;;;50.50;32.77;;;8.50;99.90;;;;;;5035081;28;20396;-69
2021/11/04 03:52:03;;;;;;;49.37;32.80;;;8.50;99.90;;;;;;5034789;28;20924;-70
2021/11/04 03:54:29;;;;;;;39.90;30.83;;;8.50;99.90;;;;;;5035199;28;21014;-71
2021/11/04 03:56:56;;;;;;;43.43;31.67;;;8.50;99.90;;;;;;5034975;28;20399;-72
2021/11/04 03:59:22;;;;;;;49.30;30.27;;;8.50;99.90;;;;;;5034800;28;20455;-69
2021/11/04 04:01:49;;;;;;;41.50;30.23;;;8.50;99.90;;;;;;5034659;28;20442;-70
2021/11/04 04:04:15;;;;;;;46.60;33.43;;;8.50;99.90;;;;;;5034493;28;20455;-70
2021/11/04 04:06:41;;;;;;;43.40;31.53;;;8.40;99.90;;;;;;5034652;28;20396;-71
2021/11/04 04:09:07;;;;;;;42.63;30.63;;;8.50;99.90;;;;;;5034764;28;20576;-69
2021/11/04 04:11:33;;;;;;;45.27;30.90;;;8.40;99.90;;;;;;5034494;28;20511;-70
2021/11/04 04:13:59;;;;;;;44.27;29.83;;;8.40;99.90;;;;;;5034475;28;20489;-71
2021/11/04 04:16:25;;;;;;;41.43;30.93;;;8.40;99.90;;;;;;5034402;28;20184;-70
2021/11/04 04:18:51;;;;;;;44.03;30.30;;;8.40;99.90;;;;;;5034643;28;20188;-70
2021/11/04 04:21:17;;;;;;;39.40;27.87;;;8.40;99.90;;;;;;5034205;28;20494;-70
2021/11/04 04:23:43;;;;;;;44.20;31.67;;;8.30;99.90;;;;;;5034277;28;20757;-70
2021/11/04 04:26:09;;;;;;;42.33;31.10;;;8.30;99.90;;;;;;5033935;28;20477;-70
2021/11/04 04:28:35;;;;;;;48.13;32.20;;;8.30;99.90;;;;;;5034242;28;20585;-70
2021/11/04 04:31:00;;;;;;;39.47;28.63;;;8.30;99.90;;;;;;5033989;28;20305;-70
2021/11/04 04:33:26;;;;;;;44.33;29.70;;;8.20;99.90;;;;;;5033880;28;20920;-71
2021/11/04 04:35:52;;;;;;;52.77;32.90;;;8.20;99.90;;;;;;5034187;28;20172;-70
2021/11/04 04:38:18;;;;;;;52.30;30.57;;;8.20;99.90;;;;;;5026558;28;20184;-71
2021/11/04 04:40:44;;;;;;;43.93;30.20;;;8.20;99.90;;;;;;5028554;28;20271;-70
2021/11/04 04:43:10;;;;;;;50.50;32.00;;;8.10;99.90;;;;;;5032206;28;20833;-70
2021/11/04 04:45:36;;;;;;;46.33;30.10;;;8.10;99.90;;;;;;5032741;28;20486;-70
2021/11/04 04:48:02;;;;;;;47.80;28.83;;;8.10;99.90;;;;;;5031599;28;20250;-71
2021/11/04 04:50:27;;;;;;;45.87;30.10;;;8.10;99.90;;;;;;5028421;28;20188;-71
2021/11/04 04:52:53;;;;;;;49.67;32.50;;;8.10;99.90;;;;;;5033554;28;20422;-70
2021/11/04 04:55:19;;;;;;;44.03;31.20;;;8.10;99.90;;;;;;5033155;28;20220;-70
2021/11/04 04:57:44;;;;;;;53.30;31.73;;;8.10;99.90;;;;;;5033496;28;20250;-70
2021/11/04 05:00:12;;;;;;;51.17;31.03;;;8.10;99.90;;;;;;5033020;28;20258;-71
2021/11/04 05:02:39;;;;;;;47.80;31.87;;;8.10;99.90;;;;;;5033255;28;20202;-71
2021/11/04 05:05:05;;;;;;;49.47;31.97;;;8.10;99.90;;;;;;5031936;28;20458;-70
2021/11/04 05:07:31;;;;;;;49.07;33.10;;;8.10;99.90;;;;;;5031984;28;20526;-70
2021/11/04 05:09:57;;;;;;;51.00;32.27;;;8.10;99.90;;;;;;5033219;28;20880;-71
2021/11/04 05:12:22;;;;;;;53.73;34.77;;;8.10;99.90;;;;;;5033217;28;20262;-70
2021/11/04 05:14:48;;;;;;;54.57;34.67;;;8.10;99.90;;;;;;5033318;28;20548;-70
2021/11/04 05:17:13;;;;;;;45.73;31.13;;;8.10;99.90;;;;;;5033286;28;20211;-70
2021/11/04 05:19:39;;;;;;;54.40;33.93;;;8.10;99.90;;;;;;5032291;28;20267;-72
2021/11/04 05:22:04;;;;;;;53.00;32.23;;;8.10;99.90;;;;;;5016066;28;20176;-70
2021/11/04 05:24:34;;;;;;;47.90;32.00;;;8.00;99.90;;;;;;5024213;28;20203;-71
2021/11/04 05:27:01;;;;;;;50.13;31.47;;;8.00;99.90;;;;;;5020459;28;20169;-70
2021/11/04 05:29:27;;;;;;;51.03;33.77;;;8.00;99.90;;;;;;5032355;28;20427;-70
2021/11/04 05:31:53;;;;;;;51.43;32.00;;;8.00;99.90;;;;;;5031120;28;20534;-71
2021/11/04 05:34:19;;;;;;;48.33;31.50;;;8.00;99.90;;;;;;5032643;28;20636;-71
2021/11/04 05:36:44;;;;;;;54.53;33.83;;;8.00;99.90;;;;;;5032878;28;20399;-71
2021/11/04 05:39:10;;;;;;;52.43;33.03;;;8.00;99.90;;;;;;5032572;28;20160;-71
2021/11/04 05:41:35;;;;;;;49.83;31.20;;;8.00;99.90;;;;;;5032543;28;20180;-71
2021/11/04 05:44:01;;;;;;;47.70;29.93;;;8.00;99.90;;;;;;5032959;28;20175;-70
2021/11/04 05:46:26;;;;;;;53.93;32.80;;;8.00;99.90;;;;;;5032510;28;20152;-71
2021/11/04 05:48:52;;;;;;;46.17;28.83;;;8.00;99.90;;;;;;5032602;28;20239;-71
2021/11/04 05:51:18;;;;;;;51.90;32.50;;;8.00;99.90;;;;;;5032496;28;20187;-71
2021/11/04 05:53:44;;;;;;;52.53;33.77;;;8.00;99.90;;;;;;5031411;28;20177;-71
2021/11/04 05:56:09;;;;;;;50.10;32.33;;;7.90;99.90;;;;;;5028272;28;20423;-72
2021/11/04 05:58:35;;;;;;;47.27;32.07;;;7.90;99.90;;;;;;5031666;28;20176;-71
2021/11/04 06:01:01;;;;;;;53.97;32.00;;;8.00;99.90;;;;;;5032293;28;20211;-70
2021/11/04 06:03:26;;;;;;;57.63;34.00;;;8.00;99.90;;;;;;5031753;28;20294;-70
2021/11/04 06:05:52;;;;;;;55.60;33.40;;;8.00;99.90;;;;;;5031766;28;20185;-71
2021/11/04 06:08:17;;;;;;;54.20;33.83;;;8.00;99.90;;;;;;5029828;28;20271;-70
2021/11/04 06:10:43;;;;;;;58.77;35.27;;;8.00;99.90;;;;;;5018769;28;20207;-71
2021/11/04 06:13:09;;;;;;;52.07;32.87;;;8.00;99.90;;;;;;5031314;28;20153;-71
2021/11/04 06:15:34;;;;;;;59.77;35.13;;;8.00;99.90;;;;;;5031126;28;20536;-70
2021/11/04 06:18:00;;;;;;;62.70;33.90;;;8.00;99.90;;;;;;5031847;28;20184;-71
2021/11/04 06:20:25;;;;;;;63.70;35.30;;;8.00;99.90;;;;;;5032127;28;20186;-70
2021/11/04 06:22:51;;;;;;;59.40;36.00;;;7.90;99.90;;;;;;5027344;28;20187;-70
2021/11/04 06:25:17;;;;;;;60.93;36.20;;;8.00;99.90;;;;;;5023442;28;20387;-71
2021/11/04 06:27:42;;;;;;;64.87;34.80;;;8.00;99.90;;;;;;5029881;28;20679;-71
2021/11/04 06:30:09;;;;;;;62.50;38.23;;;8.00;99.90;;;;;;5026575;28;20546;-70
2021/11/04 06:32:36;;;;;;;67.60;36.97;;;7.90;99.90;;;;;;5031016;28;20188;-71
2021/11/04 06:35:04;;;;;;;69.53;39.17;;;7.90;99.90;;;;;;5029206;28;20435;-71
2021/11/04 06:37:30;;;;;;;66.53;37.20;;;7.90;99.90;;;;;;5030167;28;20415;-71
2021/11/04 06:39:55;;;;;;;70.13;40.17;;;7.90;99.90;;;;;;5010862;28;20426;-71
2021/11/04 06:42:21;;;;;;;65.23;37.83;;;7.90;99.90;;;;;;5029411;28;20237;-71
2021/11/04 06:44:47;;;;;;;67.17;35.00;;;8.00;99.90;;;;;;5028655;28;20209;-71
2021/11/04 06:47:22;;;;;;;71.30;37.20;;;8.00;99.90;;;;;;5021210;28;20305;-73
2021/11/04 06:49:51;;;;;;;67.90;38.53;;;8.00;99.90;;;;;;5018037;28;21584;-72
2021/11/04 06:52:23;;;;;;;73.47;40.10;;;8.00;99.90;;;;;;5026374;28;20513;-71
2021/11/04 06:54:50;;;;;;;72.73;38.87;;;8.00;99.90;;;;;;5027055;28;20442;-72
2021/11/04 06:57:19;;;;;;;72.87;41.73;;;8.10;99.90;;;;;;5030974;28;20476;-72
2021/11/04 06:59:49;;;;;;;74.50;42.53;;;8.10;99.90;;;;;;5029778;28;20438;-72
2021/11/04 07:02:37;;;;;;;72.73;40.57;;;8.10;99.90;;;;;;5028324;28;20473;-72
2021/11/04 07:05:04;;;;;;;86.87;44.07;;;8.20;99.90;;;;;;5028225;28;21018;-71
2021/11/04 07:07:43;;;;;;;79.73;43.60;;;8.20;99.90;;;;;;5029359;28;20435;-72
2021/11/04 07:10:09;;;;;;;80.93;43.60;;;8.20;99.90;;;;;;5029407;28;20419;-71
2021/11/04 07:12:36;;;;;;;72.03;43.43;;;8.20;99.90;;;;;;5030147;28;20423;-71
2021/11/04 07:15:02;;;;;;;83.90;45.50;;;8.20;99.90;;;;;;5026806;28;20462;-71
2021/11/04 07:17:27;;;;;;;77.57;41.97;;;8.30;99.90;;;;;;5034540;28;20458;-71
2021/11/04 07:19:53;;;;;;;90.83;43.53;;;8.30;99.90;;;;;;5033524;28;20169;-71
2021/11/04 07:22:33;;;;;;;78.40;42.17;;;8.30;99.90;;;;;;5032980;28;20547;-72
2021/11/04 07:30:22;;;;;;;70.77;41.00;;;8.30;99.90;;;;;;5048734;28;20669;-70
2021/11/04 07:33:05;;;;;;;70.70;39.47;;;8.30;99.90;;;;;;5029352;28;20527;-71
2021/11/04 07:35:35;;;;;;;72.80;38.03;;;8.30;99.90;;;;;;5023182;28;21022;-71
2021/11/04 07:38:04;;;;;;;65.73;39.20;;;8.30;99.90;;;;;;5024107;28;20486;-71
2021/11/04 07:40:30;;;;;;;69.50;40.20;;;8.30;99.90;;;;;;5024937;28;20431;-72
2021/11/04 07:42:56;;;;;;;68.70;39.07;;;8.30;99.90;;;;;;5025928;28;20430;-71
2021/11/04 07:45:22;;;;;;;69.10;40.63;;;8.30;99.90;;;;;;5022467;28;20518;-71
2021/11/04 07:47:49;;;;;;;70.40;41.70;;;8.30;99.90;;;;;;5032384;28;20442;-70
2021/11/04 07:50:18;;;;;;;75.63;38.93;;;8.30;99.90;;;;;;5023375;28;20462;-71
2021/11/04 07:52:44;;;;;;;67.07;39.33;;;8.40;99.90;;;;;;5026458;28;20943;-70
2021/11/04 07:55:10;;;;;;;66.70;40.20;;;8.40;99.90;;;;;;5021852;28;20949;-71
2021/11/04 07:57:38;;;;;;;64.10;36.60;;;8.30;99.90;;;;;;5025279;28;20416;-70
2021/11/04 08:00:06;;;;;;;60.13;37.60;;;8.30;99.90;;;;;;5022848;28;20189;-72
2021/11/04 08:02:32;;;;;;;61.50;34.70;;;8.40;99.90;;;;;;5026438;28;20454;-71
2021/11/04 08:04:57;;;;;;;64.70;38.83;;;8.40;99.90;;;;;;5023075;28;20423;-70
2021/11/04 08:07:23;;;;;;;65.33;38.77;;;8.50;99.90;;;;;;5025037;28;20586;-71
2021/11/04 08:09:48;;;;;;;64.77;37.97;;;8.50;99.90;;;;;;5020063;28;20264;-71
2021/11/04 08:12:14;;;;;;;64.33;39.07;;;8.50;99.90;;;;;;5015040;28;20270;-71
2021/11/04 08:14:41;;;;;;;63.33;39.40;;;8.50;99.90;;;;;;5026173;28;20184;-71
2021/11/04 08:17:07;;;;;;;62.90;36.33;;;8.60;99.90;;;;;;5020596;28;20219;-71
2021/11/04 08:19:34;;;;;;;65.40;38.50;;;8.60;99.90;;;;;;5020129;28;20419;-71
2021/11/04 08:22:00;;;;;;;63.17;38.57;;;8.60;99.90;;;;;;5022540;28;20165;-71
2021/11/04 08:24:26;;;;;;;64.27;37.67;;;8.60;99.90;;;;;;5031585;28;20448;-71
2021/11/04 08:26:52;;;;;;;61.57;35.37;;;8.60;99.90;;;;;;5026779;28;20473;-71
2021/11/04 08:29:17;;;;;;;70.40;39.30;;;8.60;99.90;;;;;;5030333;28;20700;-70
2021/11/04 08:31:43;;;;;;;66.13;40.50;;;8.60;99.90;;;;;;5019519;28;20177;-71
2021/11/04 08:34:08;;;;;;;66.57;38.33;;;8.70;99.90;;;;;;5035669;28;20224;-70
2021/11/04 08:36:34;;;;;;;67.73;38.50;;;8.70;99.90;;;;;;5028840;28;20184;-71
2021/11/04 08:38:59;;;;;;;69.40;40.03;;;8.70;99.90;;;;;;5022131;28;20176;-71
2021/11/04 08:41:25;;;;;;;75.67;43.97;;;8.70;99.90;;;;;;5020904;28;20179;-72
2021/11/04 08:43:51;;;;;;;74.27;39.30;;;8.70;99.90;;;;;;5019801;28;20229;-72
2021/11/04 08:46:16;;;;;;;72.43;39.03;;;8.70;99.90;;;;;;5012194;28;20187;-71
2021/11/04 08:48:42;;;;;;;66.53;37.27;;;8.60;99.90;;;;;;5009671;28;20201;-72
2021/11/04 08:51:08;;;;;;;65.00;37.70;;;8.60;99.90;;;;;;5012948;28;20566;-72
2021/11/04 08:53:34;;;;;;;63.23;35.13;;;8.60;99.90;;;;;;5013885;28;20436;-71
2021/11/04 08:56:00;;;;;;;59.53;36.23;;;8.60;99.90;;;;;;5009965;28;20185;-72
2021/11/04 08:58:25;;;;;;;57.73;32.57;;;8.50;99.90;;;;;;5022799;28;20453;-71
2021/11/04 09:00:53;;;;;;;51.20;30.90;;;8.60;99.90;;;;;;5005445;28;20180;-71
2021/11/04 09:03:19;;;;;;;57.50;32.60;;;8.60;99.90;;;;;;5005641;28;20211;-71
2021/11/04 09:05:45;;;;;;;54.17;34.23;;;8.60;99.90;;;;;;5006709;28;20432;-71
2021/11/04 09:08:11;;;;;;;46.63;29.97;;;8.50;99.90;;;;;;5002093;28;20646;-71
2021/11/04 09:10:38;;;;;;;47.77;27.00;;;8.60;99.90;;;;;;5012213;28;20459;-70
2021/11/04 09:13:03;;;;;;;46.80;30.27;;;8.60;99.90;;;;;;5023124;28;20423;-71
2021/11/04 09:15:29;;;;;;;49.70;30.73;;;8.70;99.90;;;;;;5012145;28;20440;-70
2021/11/04 09:17:55;;;;;;;51.30;31.97;;;8.70;99.90;;;;;;5014825;28;20176;-71
2021/11/04 09:20:21;;;;;;;44.23;30.73;;;8.70;99.90;;;;;;5018478;28;20424;-71
2021/11/04 09:22:49;;;;;;;48.37;30.23;;;8.80;99.90;;;;;;5012382;28;20265;-70
2021/11/04 09:25:17;;;;;;;57.17;32.90;;;8.70;99.90;;;;;;5014336;28;20432;-71
2021/11/04 09:27:43;;;;;;;52.50;32.30;;;8.70;99.90;;;;;;5013443;28;20479;-71
2021/11/04 09:30:09;;;;;;;49.43;30.13;;;8.70;99.90;;;;;;5013834;28;20461;-71
2021/11/04 09:32:35;;;;;;;52.93;33.10;;;8.80;99.90;;;;;;5015191;28;20178;-70
2021/11/04 09:35:02;;;;;;;55.33;36.13;;;8.80;99.90;;;;;;5016769;28;20518;-71
2021/11/04 09:37:28;;;;;;;63.43;36.60;;;8.70;99.90;;;;;;5016273;28;20437;-72
2021/11/04 09:39:53;;;;;;;57.67;35.17;;;8.80;99.90;;;;;;5024651;28;20507;-70
2021/11/04 09:42:23;;;;;;;70.37;36.03;;;8.80;99.90;;;;;;5012956;28;20765;-70
2021/11/04 09:44:50;;;;;;;59.30;36.50;;;8.70;99.90;;;;;;5010968;28;20173;-71
2021/11/04 09:47:20;;;;;;;57.30;35.83;;;8.70;99.90;;;;;;5002205;28;20968;-71
2021/11/04 09:49:46;;;;;;;62.27;40.53;;;8.60;99.90;;;;;;5006443;28;20892;-71
2021/11/04 09:52:12;;;;;;;59.97;38.17;;;8.70;99.90;;;;;;5011650;28;20416;-72
2021/11/04 09:54:37;;;;;;;60.73;36.87;;;8.70;99.90;;;;;;5012397;28;20561;-71
2021/11/04 09:57:07;;;;;;;54.53;35.23;;;8.70;99.90;;;;;;5013778;28;20177;-71
2021/11/04 09:59:33;;;;;;;54.90;36.40;;;8.80;99.90;;;;;;5015449;28;20177;-72
2021/11/04 10:01:59;;;;;;;65.73;37.63;;;8.70;99.90;;;;;;5013445;28;20807;-72
2021/11/04 10:04:34;;;;;;;60.97;38.30;;;8.80;99.90;;;;;;5018459;28;20620;-71
2021/11/04 10:06:59;;;;;;;68.77;39.30;;;8.80;99.90;;;;;;5009010;28;20425;-71
2021/11/04 10:09:28;;;;;;;55.80;37.10;;;8.80;99.90;;;;;;5016629;28;20457;-71
2021/11/04 10:11:54;;;;;;;71.20;42.13;;;8.80;99.90;;;;;;5015395;28;20166;-71
2021/11/04 10:14:20;;;;;;;65.77;42.00;;;8.80;99.90;;;;;;5009443;28;20474;-74
2021/11/04 10:16:46;;;;;;;75.73;43.53;;;8.80;99.90;;;;;;5016599;28;20401;-71
2021/11/04 10:19:16;;;;;;;77.57;42.70;;;8.80;99.90;;;;;;5015306;28;20543;-70
2021/11/04 10:21:45;;;;;;;67.43;40.57;;;8.80;99.90;;;;;;5017856;28;20685;-72
2021/11/04 10:24:18;;;;;;;65.47;39.60;;;8.80;99.90;;;;;;5008341;28;20443;-71
2021/11/04 10:26:45;;;;;;;64.13;38.00;;;8.90;99.90;;;;;;5020198;28;20416;-70
2021/11/04 10:29:12;;;;;;;66.90;40.03;;;9.00;99.90;;;;;;5008834;28;20548;-72
2021/11/04 10:31:41;;;;;;;63.97;40.37;;;9.00;99.90;;;;;;5007025;28;20432;-72
2021/11/04 10:34:28;;;;;;;70.43;44.47;;;9.00;99.90;;;;;;5012140;28;20790;-72
2021/11/04 10:37:07;;;;;;;72.40;45.57;;;9.00;99.90;;;;;;5003043;28;20428;-71
2021/11/04 10:39:37;;;;;;;63.20;41.97;;;9.10;99.90;;;;;;5009976;28;20523;-70
2021/11/04 10:42:03;;;;;;;66.67;42.60;;;9.20;99.90;;;;;;5010642;28;20581;-71
2021/11/04 10:44:30;;;;;;;59.53;42.07;;;9.20;99.90;;;;;;5014849;28;20463;-70
2021/11/04 10:46:57;;;;;;;60.20;42.37;;;9.20;99.90;;;;;;4999146;28;20464;-70
2021/11/04 10:49:25;;;;;;;58.87;42.10;;;9.30;99.90;;;;;;5005512;28;20473;-70
2021/11/04 10:52:03;;;;;;;58.00;43.47;;;9.30;99.90;;;;;;4998944;28;21303;-71
2021/11/04 10:54:39;;;;;;;56.93;41.10;;;9.30;99.90;;;;;;5008336;28;21923;-70
2021/11/04 10:57:05;;;;;;;51.33;37.67;;;9.40;99.90;;;;;;5006244;28;20491;-71
2021/11/04 10:59:42;;;;;;;57.13;40.17;;;9.40;99.90;;;;;;5006404;28;20539;-71
2021/11/04 11:02:10;;;;;;;62.20;44.60;;;9.50;99.90;;;;;;5013628;28;20185;-70
2021/11/04 11:04:36;;;;;;;59.80;43.93;;;9.50;99.90;;;;;;5009397;28;20425;-72
2021/11/04 11:07:02;;;;;;;60.40;41.33;;;9.50;99.90;;;;;;5003865;28;20788;-72
2021/11/04 11:09:30;;;;;;;69.07;44.80;;;9.50;99.90;;;;;;5004846;28;20669;-72
2021/11/04 11:12:00;;;;;;;60.30;42.80;;;9.60;99.90;;;;;;5009256;28;20171;-71
2021/11/04 11:14:28;;;;;;;51.47;37.87;;;9.60;99.90;;;;;;5015032;28;20511;-72
2021/11/04 11:16:57;;;;;;;61.90;41.70;;;9.60;99.90;;;;;;5010743;28;20430;-71
2021/11/04 11:19:32;;;;;;;56.33;41.70;;;9.60;99.90;;;;;;5007668;28;20424;-73
2021/11/04 11:22:00;;;;;;;51.83;38.60;;;9.60;99.90;;;;;;5008725;28;20429;-71
2021/11/04 11:24:32;;;;;;;52.27;38.13;;;9.60;99.90;;;;;;5010235;28;20488;-73
2021/11/04 11:27:00;;;;;;;51.60;37.43;;;9.70;99.90;;;;;;5004056;28;20793;-70
2021/11/04 11:29:30;;;;;;;46.20;34.07;;;9.70;99.90;;;;;;5005443;28;20807;-72
2021/11/04 11:31:56;;;;;;;48.40;35.13;;;9.80;99.90;;;;;;5011084;28;20469;-73
2021/11/04 11:42:28;;;;;;;45.67;33.40;;;9.80;99.90;;;;;;5099550;27;20564;-71
2021/11/04 11:47:38;;;;;;;41.10;33.73;;;9.80;99.90;;;;;;5048591;28;20595;-71
2021/11/04 11:53:03;;;;;;;40.67;32.40;;;9.80;99.90;;;;;;5045464;28;20540;-70
2021/11/04 11:55:39;;;;;;;40.57;33.33;;;9.80;99.90;;;;;;5048597;28;20587;-70
2021/11/04 12:24:58;;;;;;;47.00;38.23;;;10.10;99.90;;;;;;5059104;28;20659;-72
2021/11/04 12:27:27;;;;;;;45.20;38.07;;;10.10;99.90;;;;;;5026135;28;20423;-70
2021/11/04 12:29:54;;;;;;;45.10;36.60;;;10.20;99.90;;;;;;5027282;28;20949;-71
2021/11/04 12:32:23;;;;;;;46.73;37.53;;;10.20;99.90;;;;;;5013949;28;20429;-70
2021/11/04 12:35:05;;;;;;;48.60;35.50;;;10.20;99.90;;;;;;5027010;28;20929;-70
2021/11/04 12:37:33;;;;;;;40.03;34.60;;;10.20;99.90;;;;;;5013841;28;20763;-71
2021/11/04 12:40:13;;;;;;;43.13;35.57;;;10.30;99.90;;;;;;5021005;28;20431;-71
2021/11/04 12:42:43;;;;;;;42.07;34.40;;;10.30;99.90;;;;;;5025612;28;20414;-71
2021/11/04 12:45:08;;;;;;;41.00;33.67;;;10.30;99.90;;;;;;5026255;28;20466;-70
2021/11/04 12:47:34;;;;;;;43.93;33.43;;;10.40;99.90;;;;;;5024169;28;20464;-71
2021/11/04 12:49:59;;;;;;;46.57;35.57;;;10.40;99.90;;;;;;5026711;28;20219;-71
2021/11/04 12:52:27;;;;;;;40.67;32.57;;;10.40;99.90;;;;;;5027653;28;20176;-79
2021/11/04 12:54:56;;;;;;;42.27;31.60;;;10.50;99.90;;;;;;5024178;28;20654;-79
2021/11/04 12:57:23;;;;;;;46.90;33.67;;;10.50;99.90;;;;;;5028318;28;20415;-80
2021/11/04 13:00:02;;;;;;;37.47;32.37;;;10.50;99.90;;;;;;5024066;28;20446;-80
2021/11/04 13:02:31;;;;;;;40.13;32.27;;;10.60;99.90;;;;;;5021964;28;20443;-79
2021/11/04 13:04:59;;;;;;;40.70;33.33;;;10.60;99.90;;;;;;5025865;28;20427;-80
2021/11/04 13:12:44;;;;;;;37.80;28.60;;;10.70;99.90;;;;;;5068375;28;20540;-78
2021/11/04 13:15:27;;;;;;;37.63;28.77;;;10.70;99.90;;;;;;5030939;28;20404;-78
2021/11/04 13:17:58;;;;;;;54.10;37.27;;;10.70;99.90;;;;;;5039174;28;20463;-78
2021/11/04 13:20:29;;;;;;;51.47;34.40;;;10.70;99.90;;;;;;5038938;28;20412;-78
2021/11/04 13:23:06;;;;;;;42.83;31.47;;;10.70;99.90;;;;;;5033233;28;20449;-79
2021/11/04 13:25:38;;;;;;;40.10;32.27;;;10.70;99.90;;;;;;5042570;28;20423;-78
2021/11/04 13:28:09;;;;;;;38.30;29.23;;;10.60;99.90;;;;;;5051867;28;20918;-78
2021/11/04 13:30:39;;;;;;;38.60;29.90;;;10.60;99.90;;;;;;5044324;28;20458;-76
2021/11/04 13:33:05;;;;;;;34.50;29.60;;;10.60;99.90;;;;;;5043292;28;20454;-77